createdAt,value
2023-02-23T00:01:22.225Z,23.40
2023-02-23T00:03:49.867Z,21.42
2023-02-23T00:06:17.858Z,20.67
2023-02-23T00:08:44.618Z,22.65
2023-02-23T00:11:14.610Z,23.30
2023-02-23T00:13:42.457Z,21.42
2023-02-23T00:16:20.353Z,20.95
2023-02-23T00:18:53.718Z,21.08
2023-02-23T00:21:26.049Z,20.60
2023-02-23T00:24:18.686Z,20.98
2023-02-23T00:26:47.891Z,22.42
2023-02-23T00:29:17.403Z,23.73
2023-02-23T00:31:50.504Z,21.10
2023-02-23T00:34:21.627Z,20.05
2023-02-23T00:36:54.668Z,23.02
2023-02-23T00:39:23.782Z,22.45
2023-02-23T00:41:52.357Z,20.85
2023-02-23T00:44:21.004Z,20.95
2023-02-23T00:46:51.772Z,21.92
2023-02-23T00:49:20.381Z,19.70
2023-02-23T00:51:47.088Z,24.10
2023-02-23T00:54:14.926Z,27.83
2023-02-23T00:56:41.682Z,24.88
2023-02-23T00:59:08.668Z,23.65
2023-02-23T01:01:35.370Z,23.30
2023-02-23T01:04:02.115Z,23.10
2023-02-23T01:06:30.240Z,24.83
2023-02-23T01:08:57.692Z,25.38
2023-02-23T01:11:27.969Z,24.20
2023-02-23T01:13:58.269Z,28.33
2023-02-23T01:16:28.045Z,23.15
2023-02-23T01:18:56.799Z,26.33
2023-02-23T01:21:25.981Z,24.77
2023-02-23T01:23:53.288Z,27.08
2023-02-23T01:26:24.965Z,23.30
2023-02-23T01:28:59.145Z,23.05
2023-02-23T01:31:26.084Z,25.38
2023-02-23T01:33:57.229Z,26.95
2023-02-23T01:36:25.592Z,26.73
2023-02-23T01:38:56.479Z,22.40
2023-02-23T01:41:24.177Z,22.77
2023-02-23T01:44:13.159Z,25.90
2023-02-23T01:46:41.486Z,26.05
2023-02-23T01:49:15.547Z,22.88
2023-02-23T01:51:51.676Z,25.98
2023-02-23T01:54:24.428Z,23.88
2023-02-23T01:56:58.257Z,26.63
2023-02-23T01:59:34.222Z,24.92
2023-02-23T02:02:01.215Z,23.55
2023-02-23T02:04:28.854Z,24.67
2023-02-23T02:07:02.004Z,23.73
2023-02-23T02:09:29.403Z,30.10
2023-02-23T02:12:02.692Z,26.85
2023-02-23T02:14:31.004Z,27.70
2023-02-23T02:17:07.553Z,30.13
2023-02-23T02:19:34.071Z,25.38
2023-02-23T02:22:14.478Z,27.27
2023-02-23T02:24:54.788Z,28.13
2023-02-23T02:27:38.509Z,26.92
2023-02-23T02:30:27.653Z,24.48
2023-02-23T02:33:34.957Z,25.75
2023-02-23T02:36:26.535Z,27.65
2023-02-23T02:39:35.051Z,26.63
2023-02-23T02:42:21.639Z,27.85
2023-02-23T02:45:15.827Z,25.95
2023-02-23T02:48:07.476Z,23.65
2023-02-23T02:50:46.592Z,25.88
2023-02-23T02:53:20.705Z,28.17
2023-02-23T02:55:48.317Z,27.75
2023-02-23T02:58:15.288Z,22.35
2023-02-23T03:01:02.090Z,28.73
2023-02-23T03:03:59.981Z,28.65
2023-02-23T03:06:52.378Z,27.65
2023-02-23T03:10:00.122Z,29.67
2023-02-23T03:12:52.476Z,30.85
2023-02-23T03:16:08.857Z,27.83
2023-02-23T03:19:43.456Z,28.67
2023-02-23T03:22:36.694Z,32.08
2023-02-23T03:25:32.068Z,27.08
2023-02-23T03:28:31.950Z,28.83
2023-02-23T03:31:32.788Z,31.15
2023-02-23T03:34:40.897Z,24.38
2023-02-23T03:37:37.262Z,27.77
2023-02-23T03:40:27.842Z,27.38
2023-02-23T03:43:15.407Z,28.33
2023-02-23T03:46:02.838Z,30.30
2023-02-23T03:48:48.723Z,26.40
2023-02-23T03:51:34.713Z,25.77
2023-02-23T03:54:26.163Z,30.50
2023-02-23T03:57:12.407Z,31.90
2023-02-23T04:00:04.556Z,31.63
2023-02-23T04:03:00.105Z,30.63
2023-02-23T04:05:45.453Z,26.30
2023-02-23T04:08:33.452Z,29.50
2023-02-23T04:11:46.541Z,30.33
2023-02-23T04:14:21.091Z,25.77
2023-02-23T04:16:48.361Z,28.63
2023-02-23T04:19:15.130Z,25.10
2023-02-23T04:21:41.785Z,26.88
2023-02-23T04:24:09.609Z,29.70
2023-02-23T04:26:36.284Z,28.38
2023-02-23T04:29:02.906Z,28.27
2023-02-23T04:31:29.592Z,29.08
2023-02-23T04:33:56.225Z,26.77
2023-02-23T04:36:24.306Z,28.75
2023-02-23T04:38:50.937Z,31.15
2023-02-23T04:41:18.149Z,30.13
2023-02-23T04:43:44.898Z,31.02
2023-02-23T04:46:11.644Z,26.38
2023-02-23T04:48:38.329Z,26.67
2023-02-23T04:51:05.066Z,28.08
2023-02-23T04:53:31.654Z,28.63
2023-02-23T04:55:58.274Z,27.02
2023-02-23T04:58:24.905Z,27.75
2023-02-23T05:00:51.533Z,27.70
2023-02-23T05:03:18.132Z,28.65
2023-02-23T05:05:45.317Z,28.40
2023-02-23T05:08:11.936Z,28.10
2023-02-23T05:10:40.274Z,27.80
2023-02-23T05:13:07.044Z,28.90
2023-02-23T05:15:33.671Z,27.27
2023-02-23T05:18:00.690Z,28.65
2023-02-23T05:20:27.747Z,29.95
2023-02-23T05:22:54.379Z,28.15
2023-02-23T05:25:21.072Z,30.90
2023-02-23T05:27:47.687Z,32.53
2023-02-23T05:30:14.447Z,30.45
2023-02-23T05:32:41.115Z,28.85
2023-02-23T05:35:10.761Z,29.42
2023-02-23T05:37:37.338Z,31.70
2023-02-23T05:40:04.860Z,27.48
2023-02-23T05:42:31.518Z,26.00
2023-02-23T05:44:58.192Z,27.52
2023-02-23T05:47:24.840Z,31.13
2023-02-23T05:49:51.487Z,31.63
2023-02-23T05:52:18.170Z,26.73
2023-02-23T05:54:45.500Z,29.85
2023-02-23T05:57:12.525Z,30.98
2023-02-23T05:59:39.106Z,33.45
2023-02-23T06:02:06.275Z,29.95
2023-02-23T06:04:33.323Z,33.40
2023-02-23T06:07:00.070Z,29.92
2023-02-23T06:09:26.729Z,36.42
2023-02-23T06:11:53.501Z,33.47
2023-02-23T06:14:20.137Z,33.47
2023-02-23T06:16:48.853Z,32.03
2023-02-23T06:19:15.716Z,33.25
2023-02-23T06:21:44.446Z,34.22
2023-02-23T06:24:12.334Z,29.63
2023-02-23T06:26:39.283Z,28.23
2023-02-23T06:29:05.920Z,32.22
2023-02-23T06:31:32.693Z,31.40
2023-02-23T06:33:59.389Z,27.33
2023-02-23T06:36:27.289Z,27.90
2023-02-23T06:38:59.762Z,32.42
2023-02-23T06:41:26.735Z,30.80
2023-02-23T06:43:53.354Z,31.50
2023-02-23T06:46:20.165Z,32.28
2023-02-23T06:48:46.991Z,32.17
2023-02-23T06:51:13.694Z,30.52
2023-02-23T06:53:40.281Z,32.45
2023-02-23T06:56:07.416Z,30.25
2023-02-23T06:58:38.637Z,29.75
2023-02-23T07:01:05.579Z,33.67
2023-02-23T07:03:32.506Z,34.42
2023-02-23T07:05:59.127Z,32.85
2023-02-23T07:08:26.102Z,30.48
2023-02-23T07:10:54.693Z,31.55
2023-02-23T07:13:22.038Z,29.48
2023-02-23T07:15:49.149Z,31.83
2023-02-23T07:18:16.412Z,29.08
2023-02-23T07:20:43.055Z,30.10
2023-02-23T07:23:09.669Z,29.90
2023-02-23T07:25:36.451Z,29.52
2023-02-23T07:28:03.030Z,35.10
2023-02-23T07:30:29.759Z,29.02
2023-02-23T07:32:56.450Z,29.42
2023-02-23T07:35:23.079Z,33.42
2023-02-23T07:37:49.668Z,29.25
2023-02-23T07:40:17.276Z,30.58
2023-02-23T07:42:44.730Z,29.77
2023-02-23T07:45:11.871Z,31.33
2023-02-23T07:47:39.520Z,34.08
2023-02-23T07:50:10.446Z,33.78
2023-02-23T07:52:38.111Z,30.98
2023-02-23T07:55:05.685Z,33.47
2023-02-23T07:57:34.932Z,30.35
2023-02-23T08:00:05.171Z,29.15
2023-02-23T08:02:39.339Z,27.77
2023-02-23T08:05:08.582Z,31.05
2023-02-23T08:07:35.242Z,38.42
2023-02-23T08:10:01.907Z,34.05
2023-02-23T08:12:28.690Z,28.08
2023-02-23T08:14:55.344Z,31.02
2023-02-23T08:17:21.995Z,34.00
2023-02-23T08:19:50.150Z,31.20
2023-02-23T08:22:17.223Z,30.98
2023-02-23T08:24:43.861Z,55.53
2023-02-23T08:27:10.651Z,39.92
2023-02-23T08:29:37.292Z,27.00
2023-02-23T08:32:04.828Z,32.38
2023-02-23T08:34:31.900Z,29.00
2023-02-23T08:36:58.656Z,27.10
2023-02-23T08:39:25.542Z,27.60
2023-02-23T08:41:56.665Z,31.95
2023-02-23T08:44:26.318Z,28.33
2023-02-23T08:46:53.967Z,28.88
2023-02-23T08:49:20.803Z,34.83
2023-02-23T08:51:47.541Z,37.88
2023-02-23T08:54:16.308Z,23.70
2023-02-23T08:56:43.516Z,27.73
2023-02-23T08:59:11.782Z,24.90
2023-02-23T09:01:38.778Z,24.30
2023-02-23T09:04:05.959Z,25.98
2023-02-23T09:06:32.943Z,25.83
2023-02-23T09:08:59.610Z,28.13
2023-02-23T09:11:26.343Z,23.95
2023-02-23T09:13:52.999Z,22.55
2023-02-23T09:16:19.663Z,41.70
2023-02-23T09:18:46.362Z,30.75
2023-02-23T09:21:25.431Z,21.23
2023-02-23T09:23:55.998Z,24.00
2023-02-23T09:28:50.991Z,18.98
2023-02-23T09:31:22.122Z,20.58
2023-02-23T09:33:49.610Z,31.60
2023-02-23T09:36:23.044Z,29.77
2023-02-23T09:38:56.557Z,18.52
2023-02-23T09:41:26.933Z,16.73
2023-02-23T09:46:38.445Z,14.13
2023-02-23T09:49:08.423Z,16.75
2023-02-23T09:51:38.607Z,18.73
2023-02-23T09:54:06.443Z,23.05
2023-02-23T09:56:39.031Z,21.00
2023-02-23T09:59:09.922Z,15.40
2023-02-23T10:01:49.871Z,16.60
2023-02-23T10:04:39.903Z,18.58
2023-02-23T10:07:27.016Z,19.45
2023-02-23T10:09:53.606Z,16.15
2023-02-23T10:12:29.838Z,15.73
2023-02-23T10:14:59.351Z,16.50
2023-02-23T10:17:55.641Z,14.55
2023-02-23T10:20:30.367Z,13.50
2023-02-23T10:23:03.910Z,15.07
2023-02-23T10:25:35.672Z,13.75
2023-02-23T10:28:02.886Z,15.10
2023-02-23T10:30:31.786Z,15.18
2023-02-23T10:33:14.496Z,13.18
2023-02-23T10:35:41.172Z,11.30
2023-02-23T10:38:14.628Z,17.00
2023-02-23T10:40:41.970Z,14.27
2023-02-23T10:43:11.802Z,10.88
2023-02-23T10:45:45.994Z,11.52
2023-02-23T10:48:19.566Z,12.75
2023-02-23T10:50:49.477Z,14.75
2023-02-23T10:53:35.974Z,14.40
2023-02-23T10:56:13.985Z,16.75
2023-02-23T10:58:48.731Z,11.75
2023-02-23T11:01:26.531Z,10.60
2023-02-23T11:04:05.418Z,12.70
2023-02-23T11:06:42.324Z,9.75
2023-02-23T11:09:41.193Z,11.52
2023-02-23T11:12:37.293Z,8.63
2023-02-23T11:15:35.124Z,12.02
2023-02-23T11:18:07.004Z,9.38
2023-02-23T11:20:37.082Z,8.85
2023-02-23T11:23:14.781Z,14.25
2023-02-23T11:25:43.434Z,9.40
2023-02-23T11:28:27.734Z,9.32
2023-02-23T11:30:54.594Z,10.45
2023-02-23T11:33:25.540Z,9.77
2023-02-23T11:35:59.975Z,8.93
2023-02-23T11:38:29.193Z,9.15
2023-02-23T11:41:01.552Z,10.57
2023-02-23T11:43:28.628Z,12.27
2023-02-23T11:45:58.341Z,8.40
2023-02-23T11:48:48.299Z,8.65
2023-02-23T11:51:24.272Z,12.40
2023-02-23T11:53:50.921Z,8.52
2023-02-23T11:56:25.700Z,7.80
2023-02-23T11:59:07.407Z,7.50
2023-02-23T12:01:44.713Z,10.77
2023-02-23T12:04:25.172Z,6.72
2023-02-23T12:06:52.367Z,8.73
2023-02-23T12:09:28.253Z,9.95
2023-02-23T12:12:10.118Z,9.68
2023-02-23T12:14:49.791Z,5.57
2023-02-23T12:17:21.257Z,8.80
2023-02-23T12:19:49.842Z,6.80
2023-02-23T12:22:22.700Z,8.43
2023-02-23T12:24:54.092Z,7.50
2023-02-23T12:27:31.711Z,6.43
2023-02-23T12:30:17.869Z,8.32
2023-02-23T12:33:02.820Z,4.47
2023-02-23T12:35:36.640Z,5.07
2023-02-23T12:38:12.291Z,6.05
2023-02-23T12:40:42.191Z,7.57
2023-02-23T12:43:25.513Z,5.05
2023-02-23T12:45:52.760Z,5.70
2023-02-23T12:48:34.499Z,13.07
2023-02-23T12:51:04.094Z,7.40
2023-02-23T12:53:41.645Z,7.63
2023-02-23T12:56:43.930Z,7.25
2023-02-23T12:59:31.439Z,8.32
2023-02-23T13:02:01.753Z,10.93
2023-02-23T13:04:56.437Z,8.60
2023-02-23T13:07:34.889Z,5.97
2023-02-23T13:10:15.457Z,8.30
2023-02-23T13:12:45.254Z,7.43
2023-02-23T13:15:30.155Z,8.20
2023-02-23T13:18:27.800Z,7.97
2023-02-23T13:21:00.731Z,6.57
2023-02-23T13:23:38.263Z,7.10
2023-02-23T13:26:14.727Z,8.45
2023-02-23T13:29:01.531Z,10.25
2023-02-23T13:31:39.163Z,6.40
2023-02-23T13:34:10.389Z,7.22
2023-02-23T13:36:39.328Z,11.02
2023-02-23T13:39:24.719Z,6.30
2023-02-23T13:42:17.341Z,6.57
2023-02-23T13:44:52.014Z,5.60
2023-02-23T13:47:33.162Z,4.15
2023-02-23T13:50:15.632Z,6.07
2023-02-23T13:52:45.249Z,6.70
2023-02-23T13:55:28.335Z,8.38
2023-02-23T13:58:25.917Z,6.10
2023-02-23T14:01:09.249Z,9.15
2023-02-23T14:03:54.202Z,8.90
2023-02-23T14:06:25.278Z,9.95
2023-02-23T14:09:01.317Z,8.80
2023-02-23T14:11:49.740Z,6.93
2023-02-23T14:14:37.369Z,8.80
2023-02-23T14:17:16.182Z,6.00
2023-02-23T14:19:43.499Z,10.15
2023-02-23T14:22:14.866Z,7.00
2023-02-23T14:24:41.636Z,9.77
2023-02-23T14:27:11.253Z,5.95
2023-02-23T14:30:12.990Z,8.13
2023-02-23T14:32:47.856Z,7.32
2023-02-23T14:35:32.884Z,5.85
2023-02-23T14:38:10.551Z,6.60
2023-02-23T14:40:43.023Z,11.52
2023-02-23T14:43:33.576Z,4.97
2023-02-23T14:46:01.739Z,6.43
2023-02-23T14:48:28.975Z,6.82
2023-02-23T14:51:16.482Z,6.63
2023-02-23T14:53:43.814Z,5.53
2023-02-23T14:56:22.675Z,8.35
2023-02-23T14:58:54.705Z,5.63
2023-02-23T15:01:34.267Z,9.45
2023-02-23T15:04:16.870Z,8.20
2023-02-23T15:06:47.073Z,6.07
2023-02-23T15:09:21.073Z,11.38
2023-02-23T15:11:50.170Z,7.90
2023-02-23T15:14:27.546Z,6.05
2023-02-23T15:16:56.121Z,5.18
2023-02-23T15:19:35.101Z,4.90
2023-02-23T15:22:03.637Z,6.65
2023-02-23T15:24:44.954Z,7.15
2023-02-23T15:27:23.656Z,7.18
2023-02-23T15:29:50.636Z,9.73
2023-02-23T15:32:23.655Z,6.78
2023-02-23T15:34:55.643Z,6.00
2023-02-23T15:37:37.117Z,6.70
2023-02-23T15:40:06.179Z,11.85
2023-02-23T15:42:41.588Z,7.22
2023-02-23T15:45:24.646Z,5.82
2023-02-23T15:47:55.549Z,5.13
2023-02-23T15:50:36.303Z,6.82
2023-02-23T15:53:13.555Z,6.28
2023-02-23T15:55:43.143Z,4.72
2023-02-23T15:58:32.115Z,7.07
2023-02-23T16:01:20.272Z,6.97
2023-02-23T16:03:59.620Z,6.20
2023-02-23T16:06:27.411Z,9.95
2023-02-23T16:09:05.855Z,7.28
2023-02-23T16:11:38.267Z,8.38
2023-02-23T16:14:06.851Z,9.07
2023-02-23T16:16:35.194Z,5.82
2023-02-23T16:19:02.780Z,4.75
2023-02-23T16:21:31.134Z,7.80
2023-02-23T16:23:59.467Z,6.40
2023-02-23T16:26:29.580Z,11.27
2023-02-23T16:29:01.026Z,8.25
2023-02-23T16:31:46.215Z,8.70
2023-02-23T16:34:28.178Z,11.13
2023-02-23T16:36:57.843Z,6.72
2023-02-23T16:39:29.355Z,13.02
2023-02-23T16:41:59.892Z,8.43
2023-02-23T16:47:04.815Z,11.13
2023-02-23T16:49:34.162Z,24.38
2023-02-23T16:52:01.375Z,26.38
2023-02-23T16:54:27.989Z,23.33
2023-02-23T16:56:55.484Z,15.23
2023-02-23T16:59:23.152Z,10.35
2023-02-23T17:01:50.891Z,10.82
2023-02-23T17:04:21.368Z,9.50
2023-02-23T17:09:25.187Z,9.20
2023-02-23T17:11:51.903Z,8.27
2023-02-23T17:14:28.117Z,8.00
2023-02-23T17:16:57.789Z,10.02
2023-02-23T17:19:25.721Z,9.57
2023-02-23T17:21:52.729Z,11.27
2023-02-23T17:24:19.377Z,10.75
2023-02-23T17:26:46.007Z,8.52
2023-02-23T17:29:13.194Z,8.73
2023-02-23T17:31:40.457Z,9.20
2023-02-23T17:34:07.199Z,11.75
2023-02-23T17:36:33.850Z,9.32
2023-02-23T17:39:00.982Z,7.70
2023-02-23T17:41:27.906Z,11.07
2023-02-23T17:43:54.762Z,11.90
2023-02-23T17:46:21.574Z,9.00
2023-02-23T17:48:48.228Z,9.63
2023-02-23T17:51:16.899Z,12.50
2023-02-23T17:53:43.999Z,10.65
2023-02-23T17:56:11.306Z,10.60
2023-02-23T17:58:37.990Z,8.35
2023-02-23T18:01:07.000Z,11.50
2023-02-23T18:03:35.812Z,12.82
2023-02-23T18:06:11.110Z,9.23
2023-02-23T18:08:39.416Z,12.57
2023-02-23T18:11:06.389Z,12.20
2023-02-23T18:13:35.866Z,10.38
2023-02-23T18:16:10.580Z,9.48
2023-02-23T18:18:42.705Z,10.27
2023-02-23T18:21:20.201Z,11.32
2023-02-23T18:23:47.592Z,13.60
2023-02-23T18:26:17.170Z,12.73
2023-02-23T18:28:45.791Z,9.93
2023-02-23T18:31:21.921Z,13.65
2023-02-23T18:33:55.362Z,12.93
2023-02-23T18:36:35.436Z,14.82
2023-02-23T18:39:04.155Z,12.65
2023-02-23T18:41:31.245Z,14.27
2023-02-23T18:44:02.272Z,14.05
2023-02-23T18:46:29.137Z,13.27
2023-02-23T18:48:56.038Z,14.40
2023-02-23T18:51:23.538Z,12.90
2023-02-23T18:53:51.727Z,13.77
2023-02-23T18:56:23.296Z,13.65
2023-02-23T18:58:51.093Z,16.50
2023-02-23T19:01:21.369Z,13.65
2023-02-23T19:03:49.398Z,15.90
2023-02-23T19:06:16.844Z,15.85
2023-02-23T19:08:44.254Z,17.70
2023-02-23T19:11:11.426Z,12.73
2023-02-23T19:13:38.244Z,10.90
2023-02-23T19:16:08.619Z,13.30
2023-02-23T19:18:36.177Z,14.85
2023-02-23T19:21:03.771Z,11.55
2023-02-23T19:23:30.776Z,11.93
2023-02-23T19:25:58.971Z,12.88
2023-02-23T19:28:27.293Z,18.83
2023-02-23T19:31:12.399Z,14.90
2023-02-23T19:33:39.389Z,12.95
2023-02-23T19:36:09.679Z,15.75
2023-02-23T19:38:36.774Z,14.88
2023-02-23T19:41:07.402Z,11.18
2023-02-23T19:43:34.421Z,13.40
2023-02-23T19:46:05.344Z,12.25
2023-02-23T19:48:35.468Z,11.13
2023-02-23T19:51:02.743Z,12.18
2023-02-23T19:53:29.958Z,17.17
2023-02-23T19:56:05.035Z,13.77
2023-02-23T19:58:32.250Z,17.13
2023-02-23T20:01:07.361Z,11.77
2023-02-23T20:03:34.259Z,14.10
2023-02-23T20:06:05.448Z,14.38
2023-02-23T20:08:32.426Z,12.88
2023-02-23T20:11:00.031Z,14.85
2023-02-23T20:13:29.286Z,13.27
2023-02-23T20:16:09.131Z,13.23
2023-02-23T20:18:38.605Z,14.95
2023-02-23T20:21:28.619Z,13.90
2023-02-23T20:23:55.995Z,13.05
2023-02-23T20:26:26.549Z,13.98
2023-02-23T20:28:54.551Z,17.85
2023-02-23T20:31:26.722Z,14.70
2023-02-23T20:33:54.925Z,19.40
2023-02-23T20:36:22.770Z,15.25
2023-02-23T20:38:49.395Z,14.75
2023-02-23T20:41:17.336Z,15.55
2023-02-23T20:43:44.159Z,15.80
2023-02-23T20:46:16.360Z,16.30
2023-02-23T20:48:43.843Z,14.10
2023-02-23T20:51:15.322Z,13.90
2023-02-23T20:53:45.322Z,16.92
2023-02-23T20:56:13.071Z,15.52
2023-02-23T20:58:40.192Z,17.83
2023-02-23T21:01:15.971Z,17.67
2023-02-23T21:03:42.674Z,19.15
2023-02-23T21:06:09.722Z,19.83
2023-02-23T21:08:39.958Z,16.40
2023-02-23T21:11:07.893Z,19.23
2023-02-23T21:13:35.510Z,17.40
2023-02-23T21:16:03.330Z,18.75
2023-02-23T21:18:30.926Z,21.98
2023-02-23T21:20:59.433Z,21.33
2023-02-23T21:23:26.260Z,24.75
2023-02-23T21:25:54.276Z,21.08
2023-02-23T21:28:21.009Z,20.25
2023-02-23T21:30:47.753Z,21.42
2023-02-23T21:33:14.807Z,21.10
2023-02-23T21:35:41.404Z,21.80
2023-02-23T21:38:08.396Z,24.98
2023-02-23T21:40:35.764Z,23.25
2023-02-23T21:43:06.660Z,23.30
2023-02-23T21:45:33.342Z,22.77
2023-02-23T21:47:59.992Z,24.88
2023-02-23T21:50:26.876Z,21.30
2023-02-23T21:52:56.096Z,25.52
2023-02-23T21:55:22.945Z,27.23
2023-02-23T21:57:50.380Z,25.23
2023-02-23T22:00:19.111Z,24.92
2023-02-23T22:02:46.784Z,29.02
2023-02-23T22:05:15.397Z,27.40
2023-02-23T22:07:47.574Z,26.40
2023-02-23T22:10:14.512Z,26.17
2023-02-23T22:12:41.112Z,26.58
2023-02-23T22:15:09.177Z,27.48
2023-02-23T22:17:36.389Z,26.50
2023-02-23T22:20:05.542Z,26.58
2023-02-23T22:22:36.188Z,27.85
2023-02-23T22:25:05.289Z,29.83
2023-02-23T22:27:32.325Z,32.83
2023-02-23T22:30:02.114Z,30.75
2023-02-23T22:32:32.942Z,24.70
2023-02-23T22:35:01.044Z,31.83
2023-02-23T22:37:31.699Z,29.38
2023-02-23T22:40:01.397Z,27.90
2023-02-23T22:42:30.599Z,32.30
2023-02-23T22:44:57.277Z,26.20
2023-02-23T22:47:24.196Z,25.65
2023-02-23T22:49:50.828Z,31.67
2023-02-23T22:52:17.514Z,27.48
2023-02-23T22:54:46.266Z,25.85
2023-02-23T22:57:13.532Z,25.60
2023-02-23T22:59:40.145Z,24.58
2023-02-23T23:02:06.827Z,21.83
2023-02-23T23:04:34.584Z,22.83
2023-02-23T23:07:01.382Z,23.17
2023-02-23T23:09:28.333Z,23.67
2023-02-23T23:11:56.780Z,26.02
2023-02-23T23:14:23.459Z,24.20
2023-02-23T23:16:50.244Z,23.60
2023-02-23T23:19:24.094Z,26.65
2023-02-23T23:21:56.036Z,21.50
2023-02-23T23:24:23.759Z,22.75
2023-02-23T23:26:55.529Z,23.42
2023-02-23T23:29:23.705Z,24.35
2023-02-23T23:31:51.735Z,27.35
2023-02-23T23:34:21.746Z,23.40
2023-02-23T23:36:49.676Z,20.02
2023-02-23T23:39:17.515Z,21.10
2023-02-23T23:41:48.079Z,24.23
2023-02-23T23:44:16.774Z,23.98
2023-02-23T23:46:44.779Z,25.33
2023-02-23T23:49:16.649Z,28.67
2023-02-23T23:51:50.168Z,28.42
2023-02-23T23:54:23.071Z,27.13
2023-02-23T23:56:50.413Z,23.10
2023-02-23T23:59:20.436Z,27.90
